createdAt,value
2023-04-16T00:02:01.949Z,89.53
2023-04-16T00:04:28.784Z,90.80
2023-04-16T00:06:55.652Z,90.53
2023-04-16T00:09:22.395Z,90.28
2023-04-16T00:11:49.003Z,90.52
2023-04-16T00:14:15.802Z,90.14
2023-04-16T00:16:42.421Z,89.25
2023-04-16T00:19:09.965Z,89.05
2023-04-16T00:21:36.851Z,90.07
2023-04-16T00:24:03.567Z,90.12
2023-04-16T00:26:30.479Z,90.09
2023-04-16T00:28:57.575Z,90.60
2023-04-16T00:31:32.376Z,90.47
2023-04-16T00:33:59.837Z,91.42
2023-04-16T00:36:27.970Z,91.50
2023-04-16T00:38:55.841Z,90.20
2023-04-16T00:41:24.838Z,91.91
2023-04-16T00:43:51.746Z,91.41
2023-04-16T00:46:21.286Z,92.33
2023-04-16T00:48:48.980Z,90.63
2023-04-16T00:51:16.111Z,90.88
2023-04-16T00:53:44.128Z,91.66
2023-04-16T00:56:12.783Z,91.79
2023-04-16T00:58:40.489Z,92.99
2023-04-16T01:01:07.276Z,91.99
2023-04-16T01:03:43.760Z,92.12
2023-04-16T01:06:11.424Z,93.13
2023-04-16T01:08:38.506Z,92.33
2023-04-16T01:11:05.427Z,91.28
2023-04-16T01:13:33.922Z,92.51
2023-04-16T01:16:02.039Z,91.95
2023-04-16T01:18:28.729Z,92.32
2023-04-16T01:20:55.674Z,95.02
2023-04-16T01:23:22.680Z,93.02
2023-04-16T01:25:49.338Z,94.40
2023-04-16T01:28:16.576Z,93.25
2023-04-16T01:30:43.876Z,94.06
2023-04-16T01:33:11.880Z,94.16
2023-04-16T01:35:39.349Z,94.10
2023-04-16T01:38:07.820Z,93.50
2023-04-16T01:40:38.425Z,93.20
2023-04-16T01:43:05.398Z,94.10
2023-04-16T01:45:33.361Z,94.84
2023-04-16T01:48:00.476Z,95.42
2023-04-16T01:50:28.666Z,95.92
2023-04-16T01:52:55.227Z,95.94
2023-04-16T01:55:22.693Z,95.93
2023-04-16T01:57:49.332Z,96.49
2023-04-16T02:00:16.349Z,96.75
2023-04-16T02:02:43.146Z,96.01
2023-04-16T02:05:10.118Z,97.29
2023-04-16T02:07:36.777Z,97.39
2023-04-16T02:10:04.750Z,96.56
2023-04-16T02:12:31.415Z,96.38
2023-04-16T02:14:58.136Z,96.75
2023-04-16T02:17:24.828Z,96.92
2023-04-16T02:19:52.041Z,97.27
2023-04-16T02:22:19.142Z,96.62
2023-04-16T02:24:46.111Z,97.26
2023-04-16T02:27:12.849Z,95.52
2023-04-16T02:29:40.521Z,98.09
2023-04-16T02:32:07.149Z,97.20
2023-04-16T02:34:34.749Z,97.37
2023-04-16T02:37:01.349Z,97.85
2023-04-16T02:39:27.939Z,97.76
2023-04-16T02:41:54.626Z,98.60
2023-04-16T02:44:21.608Z,98.02
2023-04-16T02:46:48.215Z,97.46
2023-04-16T02:49:14.816Z,98.64
2023-04-16T02:51:41.359Z,98.25
2023-04-16T02:54:07.910Z,98.58
2023-04-16T02:56:36.509Z,97.61
2023-04-16T02:59:03.196Z,98.23
2023-04-16T03:01:29.955Z,99.37
2023-04-16T03:03:56.917Z,99.69
2023-04-16T03:06:23.653Z,99.68
2023-04-16T03:08:50.332Z,98.33
2023-04-16T03:11:17.162Z,98.15
2023-04-16T03:13:43.939Z,99.02
2023-04-16T03:16:10.678Z,99.21
2023-04-16T03:18:37.256Z,99.21
2023-04-16T03:21:04.183Z,99.13
2023-04-16T03:23:30.847Z,99.63
2023-04-16T03:25:57.421Z,99.51
2023-04-16T03:28:25.643Z,100.00
2023-04-16T03:30:53.192Z,100.00
2023-04-16T03:33:21.575Z,100.00
2023-04-16T03:35:56.051Z,99.55
2023-04-16T03:38:23.665Z,100.00
2023-04-16T03:40:50.297Z,100.00
2023-04-16T03:43:16.872Z,99.83
2023-04-16T03:45:47.191Z,100.00
2023-04-16T03:48:14.025Z,100.00
2023-04-16T03:50:41.033Z,100.00
2023-04-16T03:53:08.995Z,100.00
2023-04-16T03:55:35.945Z,100.00
2023-04-16T03:58:03.452Z,100.00
2023-04-16T04:00:32.729Z,100.00
2023-04-16T04:02:59.577Z,100.00
2023-04-16T04:05:26.329Z,100.00
2023-04-16T04:07:53.171Z,100.00
2023-04-16T04:10:19.777Z,100.00
2023-04-16T04:12:46.804Z,100.00
2023-04-16T04:15:14.923Z,100.00
2023-04-16T04:17:41.544Z,100.00
2023-04-16T04:20:09.380Z,100.00
2023-04-16T04:22:36.060Z,100.00
2023-04-16T04:25:02.723Z,100.00
2023-04-16T04:27:29.265Z,100.00
2023-04-16T04:29:56.898Z,100.00
2023-04-16T04:32:25.621Z,100.00
2023-04-16T04:34:52.401Z,100.00
2023-04-16T04:37:19.052Z,100.00
2023-04-16T04:39:45.635Z,100.00
2023-04-16T04:42:12.370Z,100.00
2023-04-16T04:44:39.993Z,100.00
2023-04-16T04:47:06.579Z,100.00
2023-04-16T04:49:33.236Z,100.00
2023-04-16T04:51:59.983Z,100.00
2023-04-16T04:54:26.689Z,100.00
2023-04-16T04:56:53.578Z,100.00
2023-04-16T04:59:24.431Z,100.00
2023-04-16T05:01:51.418Z,100.00
2023-04-16T05:04:18.573Z,100.00
2023-04-16T05:06:45.788Z,100.00
2023-04-16T05:09:12.369Z,100.00
2023-04-16T05:11:39.436Z,100.00
2023-04-16T05:14:07.239Z,100.00
2023-04-16T05:16:36.691Z,100.00
2023-04-16T05:19:03.647Z,100.00
2023-04-16T05:21:30.845Z,100.00
2023-04-16T05:23:57.391Z,100.00
2023-04-16T05:26:24.006Z,100.00
2023-04-16T05:28:50.654Z,100.00
2023-04-16T05:31:17.391Z,100.00
2023-04-16T05:33:45.140Z,100.00
2023-04-16T05:36:12.671Z,100.00
2023-04-16T05:38:40.277Z,100.00
2023-04-16T05:41:08.715Z,100.00
2023-04-16T05:43:35.997Z,100.00
2023-04-16T05:46:02.734Z,100.00
2023-04-16T05:48:29.396Z,100.00
2023-04-16T05:50:56.016Z,100.00
2023-04-16T05:53:22.664Z,100.00
2023-04-16T05:55:49.290Z,100.00
2023-04-16T05:58:15.904Z,100.00
2023-04-16T06:00:42.585Z,100.00
2023-04-16T06:03:09.355Z,100.00
2023-04-16T06:05:36.420Z,100.00
2023-04-16T06:08:03.288Z,100.00
2023-04-16T06:10:30.003Z,100.00
2023-04-16T06:12:56.683Z,100.00
2023-04-16T06:15:23.248Z,100.00
2023-04-16T06:17:50.921Z,100.00
2023-04-16T06:20:17.641Z,100.00
2023-04-16T06:22:44.268Z,100.00
2023-04-16T06:25:12.733Z,100.00
2023-04-16T06:27:39.384Z,100.00
2023-04-16T06:30:11.322Z,100.00
2023-04-16T06:32:38.011Z,100.00
2023-04-16T06:35:05.442Z,100.00
2023-04-16T06:37:32.005Z,97.83
2023-04-16T06:39:58.572Z,98.81
2023-04-16T06:42:25.208Z,100.00
2023-04-16T06:44:52.230Z,100.00
2023-04-16T06:47:19.917Z,93.76
2023-04-16T06:49:47.844Z,96.24
2023-04-16T06:52:14.443Z,92.79
2023-04-16T06:54:41.125Z,88.46
2023-04-16T06:57:07.791Z,86.36
2023-04-16T06:59:34.374Z,79.33
2023-04-16T07:02:01.458Z,79.23
2023-04-16T07:04:28.217Z,80.52
2023-04-16T07:06:54.873Z,80.82
2023-04-16T07:09:21.444Z,76.95
2023-04-16T07:11:48.600Z,72.65
2023-04-16T07:14:15.242Z,74.20
2023-04-16T07:16:41.881Z,73.05
2023-04-16T07:19:08.987Z,75.68
2023-04-16T07:21:36.612Z,72.75
2023-04-16T07:24:03.498Z,70.72
2023-04-16T07:26:31.405Z,70.50
2023-04-16T07:28:58.070Z,71.27
2023-04-16T07:31:24.732Z,70.77
2023-04-16T07:33:51.621Z,74.43
2023-04-16T07:36:18.250Z,75.48
2023-04-16T07:38:46.616Z,77.73
2023-04-16T07:41:13.772Z,79.11
2023-04-16T07:43:40.640Z,80.51
2023-04-16T07:46:07.485Z,81.37
2023-04-16T07:48:34.190Z,82.35
2023-04-16T07:51:01.028Z,82.61
2023-04-16T07:53:27.963Z,83.78
2023-04-16T07:55:55.803Z,83.20
2023-04-16T07:58:22.654Z,84.04
2023-04-16T08:00:50.890Z,83.58
2023-04-16T08:03:18.401Z,83.07
2023-04-16T08:05:46.548Z,82.02
2023-04-16T08:08:13.128Z,82.10
2023-04-16T08:10:39.914Z,83.25
2023-04-16T08:13:06.536Z,83.06
2023-04-16T08:15:33.163Z,83.64
2023-04-16T08:17:59.898Z,83.51
2023-04-16T08:20:26.935Z,84.85
2023-04-16T08:22:54.879Z,83.44
2023-04-16T08:25:23.740Z,82.87
2023-04-16T08:27:50.548Z,80.81
2023-04-16T08:30:17.332Z,81.61
2023-04-16T08:32:44.078Z,80.69
2023-04-16T08:35:10.795Z,81.10
2023-04-16T08:37:37.437Z,80.78
2023-04-16T08:40:04.291Z,77.70
2023-04-16T08:42:41.684Z,78.80
2023-04-16T08:45:13.709Z,78.59
2023-04-16T08:47:43.137Z,78.72
2023-04-16T08:50:12.074Z,79.57
2023-04-16T08:52:46.363Z,80.25
2023-04-16T08:55:17.041Z,79.66
2023-04-16T08:57:57.993Z,80.37
2023-04-16T09:00:24.789Z,80.01
2023-04-16T09:02:52.156Z,80.18
2023-04-16T09:05:25.467Z,79.96
2023-04-16T09:07:53.482Z,78.80
2023-04-16T09:10:20.411Z,80.39
2023-04-16T09:12:47.160Z,82.03
2023-04-16T09:15:14.323Z,80.17
2023-04-16T09:17:41.779Z,76.91
2023-04-16T09:20:11.054Z,75.86
2023-04-16T09:22:38.484Z,75.04
2023-04-16T09:25:05.562Z,75.06
2023-04-16T09:27:34.844Z,70.63
2023-04-16T09:30:01.906Z,69.58
2023-04-16T09:32:29.156Z,71.74
2023-04-16T09:35:02.449Z,71.38
2023-04-16T09:37:31.136Z,70.59
2023-04-16T09:40:05.477Z,71.26
2023-04-16T09:42:34.203Z,71.03
2023-04-16T09:45:04.142Z,72.17
2023-04-16T09:47:41.313Z,73.07
2023-04-16T09:50:11.826Z,72.66
2023-04-16T09:52:39.286Z,72.50
2023-04-16T09:55:07.518Z,73.22
2023-04-16T09:57:38.162Z,73.48
2023-04-16T10:00:07.848Z,71.74
2023-04-16T10:02:36.433Z,72.08
2023-04-16T10:05:03.512Z,72.52
2023-04-16T10:07:34.567Z,72.49
2023-04-16T10:10:16.888Z,72.03
2023-04-16T10:12:46.746Z,72.07
2023-04-16T10:15:23.189Z,73.34
2023-04-16T10:18:07.439Z,73.16
2023-04-16T10:26:48.324Z,73.12
2023-04-16T10:29:26.877Z,75.47
2023-04-16T10:32:05.304Z,72.28
2023-04-16T10:34:35.594Z,72.31
2023-04-16T10:37:02.223Z,72.57
2023-04-16T10:39:32.998Z,72.11
2023-04-16T10:42:12.559Z,71.01
2023-04-16T10:44:43.455Z,71.65
2023-04-16T10:47:13.100Z,70.99
2023-04-16T10:49:43.655Z,71.54
2023-04-16T10:52:12.904Z,72.36
2023-04-16T10:54:41.553Z,69.87
2023-04-16T10:57:17.801Z,71.79
2023-04-16T10:59:45.417Z,70.35
2023-04-16T11:02:18.828Z,69.20
2023-04-16T11:04:47.877Z,69.79
2023-04-16T11:07:20.668Z,71.42
2023-04-16T11:09:56.441Z,70.63
2023-04-16T11:12:41.494Z,68.53
2023-04-16T11:15:20.365Z,72.40
2023-04-16T11:17:51.868Z,70.90
2023-04-16T11:20:21.033Z,66.81
2023-04-16T11:22:49.567Z,66.89
2023-04-16T11:25:24.408Z,66.97
2023-04-16T11:27:52.809Z,68.83
2023-04-16T11:30:34.755Z,69.81
2023-04-16T11:33:05.860Z,67.30
2023-04-16T11:35:32.502Z,66.39
2023-04-16T11:37:59.547Z,65.86
2023-04-16T11:40:30.635Z,66.96
2023-04-16T11:43:15.442Z,64.03
2023-04-16T11:46:16.233Z,64.72
2023-04-16T11:48:55.469Z,61.92
2023-04-16T11:51:23.596Z,61.77
2023-04-16T11:53:56.335Z,64.02
2023-04-16T11:56:32.606Z,62.12
2023-04-16T11:59:13.857Z,63.49
2023-04-16T12:01:46.510Z,63.39
2023-04-16T12:04:21.609Z,62.96
2023-04-16T12:07:15.794Z,62.96
2023-04-16T12:09:44.466Z,100.00
2023-04-16T12:12:32.317Z,62.96
2023-04-16T12:15:05.733Z,100.00
2023-04-16T12:17:34.032Z,100.00
2023-04-16T12:20:11.807Z,100.00
2023-04-16T12:22:40.934Z,100.00
2023-04-16T12:25:11.992Z,100.00
2023-04-16T12:27:54.096Z,100.00
2023-04-16T12:30:23.546Z,100.00
2023-04-16T12:33:11.593Z,100.00
2023-04-16T12:35:38.422Z,100.00
2023-04-16T12:38:05.994Z,100.00
2023-04-16T12:40:33.454Z,100.00
2023-04-16T12:43:00.254Z,100.00
2023-04-16T12:45:26.994Z,100.00
2023-04-16T12:47:53.868Z,100.00
2023-04-16T12:50:20.476Z,100.00
2023-04-16T12:52:47.130Z,100.00
2023-04-16T12:55:14.304Z,100.00
2023-04-16T12:57:42.705Z,100.00
2023-04-16T13:00:10.911Z,100.00
2023-04-16T13:02:38.050Z,100.00
2023-04-16T13:05:05.367Z,100.00
2023-04-16T13:07:35.595Z,100.00
2023-04-16T13:10:02.623Z,100.00
2023-04-16T13:12:29.678Z,100.00
2023-04-16T13:14:57.735Z,100.00
2023-04-16T13:17:24.479Z,100.00
2023-04-16T13:19:51.184Z,100.00
2023-04-16T13:22:18.200Z,100.00
2023-04-16T13:24:44.836Z,100.00
2023-04-16T13:27:12.376Z,100.00
2023-04-16T13:29:39.119Z,100.00
2023-04-16T13:32:06.281Z,100.00
2023-04-16T13:34:33.076Z,100.00
2023-04-16T13:36:59.693Z,100.00
2023-04-16T13:39:26.294Z,100.00
2023-04-16T13:41:54.830Z,100.00
2023-04-16T13:44:21.577Z,100.00
2023-04-16T13:46:49.795Z,100.00
2023-04-16T13:49:16.684Z,100.00
2023-04-16T13:51:44.952Z,100.00
2023-04-16T13:54:11.712Z,100.00
2023-04-16T13:56:38.554Z,100.00
2023-04-16T13:59:05.540Z,100.00
2023-04-16T14:01:34.541Z,100.00
2023-04-16T17:29:38.927Z,65.04
2023-04-16T17:32:07.193Z,65.70
2023-04-16T17:34:35.901Z,65.41
2023-04-16T17:37:03.827Z,65.77
2023-04-16T17:39:30.509Z,66.64
2023-04-16T17:41:58.665Z,67.23
2023-04-16T17:44:27.606Z,66.82
2023-04-16T17:46:54.670Z,69.38
2023-04-16T17:49:22.930Z,68.48
2023-04-16T17:51:52.868Z,68.26
2023-04-16T17:54:20.017Z,69.78
2023-04-16T17:56:47.669Z,69.78
2023-04-16T17:59:14.534Z,70.17
2023-04-16T18:01:41.733Z,70.29
2023-04-16T18:04:09.471Z,70.19
2023-04-16T18:06:36.328Z,71.24
2023-04-16T18:09:07.596Z,71.40
2023-04-16T18:11:36.407Z,71.90
2023-04-16T18:14:05.438Z,72.11
2023-04-16T18:16:33.442Z,72.77
2023-04-16T18:19:00.184Z,72.91
2023-04-16T18:21:27.520Z,72.74
2023-04-16T18:23:54.240Z,73.04
2023-04-16T18:26:22.669Z,73.49
2023-04-16T18:28:49.774Z,74.32
2023-04-16T18:31:20.533Z,74.75
2023-04-16T18:33:57.611Z,74.84
2023-04-16T18:36:27.988Z,75.29
2023-04-16T18:39:02.279Z,74.67
2023-04-16T18:41:31.014Z,74.97
2023-04-16T18:43:57.881Z,75.44
2023-04-16T18:46:25.481Z,75.56
2023-04-16T18:48:52.465Z,76.21
2023-04-16T18:51:19.409Z,75.26
2023-04-16T18:53:46.110Z,76.50
2023-04-16T18:56:13.132Z,75.97
2023-04-16T18:58:40.154Z,75.34
2023-04-16T19:01:11.386Z,76.02
2023-04-16T19:03:38.860Z,77.45
2023-04-16T19:06:06.492Z,77.05
2023-04-16T19:08:33.191Z,78.44
2023-04-16T19:11:01.158Z,77.78
2023-04-16T19:13:30.531Z,78.76
2023-04-16T19:16:06.279Z,76.72
2023-04-16T19:18:33.224Z,78.76
2023-04-16T19:21:00.964Z,79.16
2023-04-16T19:23:29.309Z,78.85
2023-04-16T19:25:57.092Z,79.50
2023-04-16T19:28:26.352Z,80.32
2023-04-16T19:30:54.042Z,80.01
2023-04-16T19:33:23.024Z,79.44
2023-04-16T19:35:49.765Z,79.84
2023-04-16T19:38:17.187Z,80.20
2023-04-16T19:40:45.872Z,79.44
2023-04-16T19:43:13.746Z,80.03
2023-04-16T19:45:45.200Z,80.51
2023-04-16T19:48:12.413Z,81.36
2023-04-16T19:50:40.838Z,80.63
2023-04-16T19:53:08.270Z,81.19
2023-04-16T19:55:35.088Z,81.48
2023-04-16T19:58:06.176Z,82.58
2023-04-16T20:00:35.990Z,81.89
2023-04-16T20:03:03.540Z,81.17
2023-04-16T20:05:31.968Z,82.51
2023-04-16T20:07:59.694Z,81.20
2023-04-16T20:10:27.109Z,82.45
2023-04-16T20:12:54.345Z,82.19
2023-04-16T20:15:21.768Z,83.07
2023-04-16T20:17:48.555Z,83.43
2023-04-16T20:20:16.478Z,83.85
2023-04-16T20:22:43.856Z,84.93
2023-04-16T20:25:14.367Z,85.65
2023-04-16T20:27:41.080Z,87.88
2023-04-16T20:30:08.339Z,90.44
2023-04-16T20:32:34.917Z,88.91
2023-04-16T20:35:04.030Z,92.48
2023-04-16T20:37:32.468Z,93.59
2023-04-16T20:39:59.369Z,93.48
2023-04-16T20:42:27.656Z,93.94
2023-04-16T20:44:56.701Z,94.54
2023-04-16T20:47:23.637Z,95.94
2023-04-16T20:49:52.710Z,98.03
2023-04-16T20:52:19.732Z,99.28
2023-04-16T20:54:56.887Z,100.00
2023-04-16T20:57:28.630Z,99.49
2023-04-16T20:59:58.562Z,100.00
2023-04-16T21:02:29.423Z,100.00
2023-04-16T21:04:56.410Z,100.00
2023-04-16T21:07:23.002Z,100.00
2023-04-16T21:09:49.771Z,100.00
2023-04-16T21:12:16.732Z,100.00
2023-04-16T21:14:43.356Z,100.00
2023-04-16T21:17:10.104Z,100.00
2023-04-16T21:19:36.922Z,100.00
2023-04-16T21:22:03.600Z,100.00
2023-04-16T21:24:32.857Z,100.00
2023-04-16T21:26:59.459Z,100.00
2023-04-16T21:29:26.350Z,100.00
2023-04-16T21:31:53.604Z,100.00
2023-04-16T21:34:22.027Z,100.00
2023-04-16T21:36:52.459Z,100.00
2023-04-16T21:39:21.592Z,100.00
2023-04-16T21:41:48.272Z,100.00
2023-04-16T21:44:15.437Z,100.00
2023-04-16T21:46:42.166Z,100.00
2023-04-16T21:49:09.484Z,100.00
2023-04-16T21:51:37.201Z,100.00
2023-04-16T21:54:04.969Z,100.00
2023-04-16T21:56:31.635Z,100.00
2023-04-16T21:58:58.197Z,100.00
2023-04-16T22:01:25.034Z,100.00
2023-04-16T22:03:52.213Z,100.00
2023-04-16T22:06:20.486Z,100.00
2023-04-16T22:08:49.887Z,100.00
2023-04-16T22:11:33.347Z,100.00
2023-04-16T22:14:00.304Z,100.00
2023-04-16T22:16:26.938Z,100.00
2023-04-16T22:18:55.017Z,100.00
2023-04-16T22:21:21.709Z,100.00
2023-04-16T22:23:48.298Z,100.00
2023-04-16T22:26:14.932Z,100.00
2023-04-16T22:28:41.581Z,100.00
2023-04-16T22:31:08.230Z,100.00
2023-04-16T22:33:36.167Z,100.00
2023-04-16T22:36:02.767Z,100.00
2023-04-16T22:38:29.457Z,100.00
2023-04-16T22:40:56.017Z,100.00
2023-04-16T22:43:23.134Z,100.00
2023-04-16T22:45:49.763Z,100.00
2023-04-16T22:48:16.460Z,100.00
2023-04-16T22:50:48.815Z,100.00
2023-04-16T22:53:15.397Z,100.00
2023-04-16T22:55:42.020Z,100.00
2023-04-16T22:58:08.746Z,100.00
2023-04-16T23:00:35.443Z,100.00
2023-04-16T23:03:02.129Z,100.00
2023-04-16T23:05:29.160Z,100.00
2023-04-16T23:07:56.008Z,100.00
2023-04-16T23:10:22.674Z,100.00
2023-04-16T23:12:49.382Z,100.00
2023-04-16T23:15:16.187Z,100.00
2023-04-16T23:17:43.397Z,100.00
2023-04-16T23:20:10.744Z,100.00
2023-04-16T23:22:37.378Z,100.00
2023-04-16T23:25:04.230Z,100.00
2023-04-16T23:27:32.573Z,100.00
2023-04-16T23:29:59.372Z,100.00
2023-04-16T23:32:26.037Z,100.00
2023-04-16T23:34:52.629Z,100.00
2023-04-16T23:37:19.251Z,100.00
2023-04-16T23:39:45.880Z,100.00
2023-04-16T23:42:12.669Z,100.00
2023-04-16T23:44:39.536Z,100.00
2023-04-16T23:47:06.233Z,100.00
2023-04-16T23:49:33.932Z,100.00
2023-04-16T23:52:00.798Z,100.00
2023-04-16T23:54:28.565Z,100.00
2023-04-16T23:56:55.262Z,100.00
2023-04-16T23:59:21.846Z,100.00
